Time;durP1;ratioP1;P1;durP2;ratioP2;P2;SDS_P1;SDS_P2;PMS_P1;PMS_P2;Temp;Humidity;BMP_temperature;BMP_pressure;BME280_temperature;BME280_humidity;BME280_pressure;Samples;Min_cycle;Max_cycle;Signal;HPM_P1;HPM_P2
2023/07/30 00:00:43;;;;;;;1.80;1.40;;;22.30;72.70;;;;;;4945036;29;20440;-68
2023/07/30 00:03:11;;;;;;;1.60;1.47;;;22.30;72.60;;;;;;4943696;29;20451;-67
2023/07/30 00:05:40;;;;;;;2.20;1.30;;;22.30;72.60;;;;;;4942683;29;20831;-69
2023/07/30 00:08:09;;;;;;;1.60;1.50;;;22.30;72.50;;;;;;4944389;28;20423;-68
2023/07/30 00:10:37;;;;;;;1.80;1.30;;;22.30;72.50;;;;;;4944567;28;20465;-67
2023/07/30 00:13:06;;;;;;;2.47;1.60;;;22.30;72.40;;;;;;4961439;28;20444;-68
2023/07/30 00:15:35;;;;;;;1.80;1.60;;;22.30;72.30;;;;;;5005994;28;20452;-68
2023/07/30 00:18:04;;;;;;;1.60;1.13;;;22.30;72.30;;;;;;4951191;28;20902;-68
2023/07/30 00:20:34;;;;;;;2.10;1.50;;;22.30;72.20;;;;;;5009823;28;20447;-69
2023/07/30 00:23:04;;;;;;;1.70;1.30;;;22.30;72.20;;;;;;4972127;28;20469;-68
2023/07/30 00:25:32;;;;;;;3.10;1.50;;;22.30;72.10;;;;;;4957270;28;20498;-67
2023/07/30 00:28:01;;;;;;;1.37;1.27;;;22.30;72.10;;;;;;4980160;28;20444;-68
2023/07/30 00:30:29;;;;;;;1.60;1.27;;;22.30;72.10;;;;;;4977371;28;20519;-68
2023/07/30 00:33:01;;;;;;;1.70;1.53;;;22.20;71.90;;;;;;4933541;28;20460;-67
2023/07/30 00:35:30;;;;;;;2.07;1.63;;;22.30;72.00;;;;;;4963524;28;20551;-69
2023/07/30 00:37:59;;;;;;;3.57;1.63;;;22.20;71.80;;;;;;5009491;28;20472;-68
2023/07/30 00:40:27;;;;;;;5.00;2.00;;;22.20;71.80;;;;;;4986712;28;20460;-67
2023/07/30 00:42:55;;;;;;;1.50;1.30;;;22.30;71.90;;;;;;4986793;28;20451;-68
2023/07/30 00:45:24;;;;;;;2.30;1.50;;;22.30;71.80;;;;;;5017193;28;20449;-68
2023/07/30 00:47:53;;;;;;;2.20;1.40;;;22.30;71.80;;;;;;4989880;28;20472;-67
2023/07/30 00:50:23;;;;;;;2.10;1.63;;;22.30;71.70;;;;;;4994348;28;20476;-68
2023/07/30 00:52:51;;;;;;;1.97;1.30;;;22.20;71.60;;;;;;5017320;28;20440;-66
2023/07/30 00:55:20;;;;;;;2.17;1.47;;;22.20;71.50;;;;;;4970588;28;20471;-68
2023/07/30 00:57:50;;;;;;;3.60;1.40;;;22.20;71.50;;;;;;5012197;28;20490;-69
2023/07/30 01:00:18;;;;;;;2.03;1.53;;;22.20;71.50;;;;;;5006598;28;20432;-67
2023/07/30 01:02:47;;;;;;;1.90;1.50;;;22.20;71.50;;;;;;4979779;28;20456;-68
2023/07/30 01:05:16;;;;;;;2.27;1.60;;;22.20;71.50;;;;;;4992790;28;20475;-69
2023/07/30 01:07:45;;;;;;;2.47;1.50;;;22.20;71.50;;;;;;5017261;28;20443;-69
2023/07/30 01:10:15;;;;;;;1.80;1.47;;;22.20;71.40;;;;;;4946992;28;20484;-66
2023/07/30 01:12:45;;;;;;;2.00;1.23;;;22.20;71.40;;;;;;4944331;28;20783;-68
2023/07/30 01:15:14;;;;;;;2.20;1.80;;;22.20;71.50;;;;;;4932636;29;20474;-68
2023/07/30 01:17:42;;;;;;;1.87;1.20;;;22.20;71.30;;;;;;4980080;28;20484;-66
2023/07/30 01:20:12;;;;;;;2.87;1.50;;;22.20;72.60;;;;;;4992208;28;20495;-67
2023/07/30 01:22:42;;;;;;;2.47;1.40;;;22.20;71.30;;;;;;4967580;28;20446;-68
2023/07/30 01:25:10;;;;;;;1.80;1.40;;;22.20;71.20;;;;;;4961750;28;20487;-67
2023/07/30 01:27:41;;;;;;;1.60;1.17;;;22.20;71.20;;;;;;5032162;28;20456;-67
2023/07/30 01:30:18;;;;;;;3.37;1.70;;;22.20;71.20;;;;;;4972529;28;20515;-67
2023/07/30 01:32:51;;;;;;;1.63;1.23;;;22.20;71.10;;;;;;4967179;28;20808;-69
2023/07/30 01:35:22;;;;;;;2.53;1.53;;;22.20;71.10;;;;;;4960996;28;20472;-67
2023/07/30 01:37:53;;;;;;;3.57;1.50;;;22.20;71.10;;;;;;5028859;28;20439;-66
2023/07/30 01:40:22;;;;;;;1.77;1.40;;;22.20;71.00;;;;;;4964641;28;20447;-68
2023/07/30 01:42:51;;;;;;;2.33;1.63;;;22.10;70.80;;;;;;4976447;28;20467;-67
2023/07/30 01:45:19;;;;;;;2.20;1.27;;;22.20;70.90;;;;;;4965198;28;20979;-68
2023/07/30 01:47:48;;;;;;;2.67;1.40;;;22.10;70.70;;;;;;4968396;28;20538;-67
2023/07/30 01:50:17;;;;;;;2.40;1.60;;;22.20;70.90;;;;;;4955149;28;20991;-68
2023/07/30 01:52:46;;;;;;;1.60;1.17;;;22.10;70.70;;;;;;4966319;28;20696;-68
2023/07/30 01:55:16;;;;;;;1.77;1.40;;;22.10;70.60;;;;;;4946270;28;20828;-66
2023/07/30 01:57:44;;;;;;;1.87;1.30;;;22.10;70.50;;;;;;4978555;28;20444;-68
2023/07/30 02:00:15;;;;;;;2.00;1.30;;;22.10;70.50;;;;;;5037337;28;20781;-67
2023/07/30 02:02:43;;;;;;;2.20;1.63;;;22.10;70.60;;;;;;5054791;28;20483;-67
2023/07/30 02:05:12;;;;;;;2.20;1.50;;;22.10;70.50;;;;;;5023416;28;20482;-67
2023/07/30 02:07:44;;;;;;;1.53;1.40;;;22.10;70.60;;;;;;5051999;28;20807;-67
2023/07/30 02:10:13;;;;;;;2.33;1.40;;;22.10;70.40;;;;;;5029010;28;20533;-67
2023/07/30 02:12:43;;;;;;;3.00;1.80;;;22.10;70.30;;;;;;5031495;28;20924;-66
2023/07/30 02:15:11;;;;;;;2.20;1.50;;;22.10;70.40;;;;;;5064403;28;20990;-66
2023/07/30 02:17:40;;;;;;;1.50;1.13;;;22.10;70.30;;;;;;5061513;28;20447;-67
2023/07/30 02:20:10;;;;;;;1.70;1.50;;;22.10;70.00;;;;;;5062527;28;20545;-67
2023/07/30 02:22:38;;;;;;;3.07;2.27;;;22.10;70.30;;;;;;5061149;28;20439;-67
2023/07/30 02:25:07;;;;;;;3.30;2.00;;;22.10;70.20;;;;;;5065615;28;20590;-67
2023/07/30 02:27:36;;;;;;;2.27;1.20;;;22.10;70.10;;;;;;5060172;28;20776;-67
2023/07/30 02:30:07;;;;;;;1.93;1.30;;;22.10;70.40;;;;;;5064931;28;20578;-67
2023/07/30 02:32:36;;;;;;;2.57;1.40;;;22.00;70.20;;;;;;5065536;28;20451;-67
2023/07/30 02:35:05;;;;;;;3.43;1.57;;;22.10;70.20;;;;;;5064462;28;20475;-67
2023/07/30 02:37:33;;;;;;;2.33;1.53;;;22.10;70.30;;;;;;5065446;28;20451;-66
2023/07/30 02:40:04;;;;;;;2.13;1.37;;;22.10;70.00;;;;;;5048028;28;20475;-67
2023/07/30 02:42:33;;;;;;;2.50;1.47;;;22.00;70.00;;;;;;5066827;28;20777;-67
2023/07/30 02:45:01;;;;;;;2.43;1.57;;;22.10;70.20;;;;;;5061045;28;20550;-67
2023/07/30 02:47:32;;;;;;;2.17;1.33;;;22.10;70.00;;;;;;5053826;28;21166;-67
2023/07/30 02:50:01;;;;;;;3.50;1.63;;;22.00;69.90;;;;;;4957467;28;20994;-67
2023/07/30 02:52:30;;;;;;;1.67;1.27;;;22.10;70.00;;;;;;4968438;28;20889;-67
2023/07/30 02:54:59;;;;;;;2.23;1.50;;;22.10;70.00;;;;;;4983254;28;20484;-67
2023/07/30 02:57:27;;;;;;;2.13;1.40;;;22.00;69.70;;;;;;4953106;28;20507;-67
2023/07/30 02:59:56;;;;;;;2.23;1.80;;;22.00;69.80;;;;;;4997064;28;20836;-67
2023/07/30 03:02:24;;;;;;;2.00;1.43;;;22.00;69.90;;;;;;4952085;28;20453;-67
2023/07/30 03:04:54;;;;;;;2.23;1.60;;;22.00;71.10;;;;;;4991652;28;20469;-67
2023/07/30 03:07:25;;;;;;;2.00;1.50;;;22.00;69.80;;;;;;4994010;28;20459;-66
2023/07/30 03:09:53;;;;;;;2.60;1.47;;;22.00;69.60;;;;;;4987207;28;20490;-67
2023/07/30 03:12:21;;;;;;;1.97;1.60;;;22.00;69.80;;;;;;4996624;28;20448;-66
2023/07/30 03:14:53;;;;;;;1.53;1.17;;;22.00;69.70;;;;;;5010554;28;20535;-67
2023/07/30 03:17:21;;;;;;;2.63;1.40;;;22.00;69.70;;;;;;4998837;28;20428;-67
2023/07/30 03:19:50;;;;;;;2.53;1.60;;;22.00;69.70;;;;;;4958057;28;20493;-67
2023/07/30 03:22:20;;;;;;;1.40;1.27;;;22.00;69.10;;;;;;4946172;29;20517;-66
2023/07/30 03:24:48;;;;;;;2.33;1.50;;;22.00;69.00;;;;;;4957649;28;20483;-66
2023/07/30 03:27:17;;;;;;;3.17;1.93;;;22.00;68.90;;;;;;4962179;28;20448;-66
2023/07/30 03:29:45;;;;;;;3.03;1.50;;;22.00;69.20;;;;;;4947216;28;20472;-67
2023/07/30 03:32:14;;;;;;;2.30;1.80;;;22.00;69.10;;;;;;5052183;22;21095;-72
2023/07/30 03:34:42;;;;;;;2.07;1.63;;;22.00;69.20;;;;;;4951374;28;20461;-73
2023/07/30 03:37:11;;;;;;;2.17;1.37;;;22.00;70.00;;;;;;4964368;28;20475;-71
2023/07/30 03:39:40;;;;;;;1.40;1.20;;;22.00;68.90;;;;;;4942365;28;21077;-72
2023/07/30 03:42:09;;;;;;;2.03;1.20;;;21.90;68.70;;;;;;4977270;28;20448;-73
2023/07/30 03:44:37;;;;;;;3.37;2.03;;;22.00;68.60;;;;;;4968292;28;20474;-73
2023/07/30 03:47:07;;;;;;;1.80;1.40;;;21.90;68.20;;;;;;4946004;28;20478;-73
2023/07/30 03:49:35;;;;;;;2.23;1.40;;;22.00;68.50;;;;;;4947249;28;20843;-73
2023/07/30 03:52:04;;;;;;;4.30;2.13;;;21.90;68.30;;;;;;4944980;28;20862;-72
2023/07/30 03:54:35;;;;;;;2.00;1.60;;;21.90;67.90;;;;;;4960297;28;20479;-72
2023/07/30 03:57:06;;;;;;;2.20;1.60;;;21.90;68.00;;;;;;4958536;28;20447;-72
2023/07/30 03:59:34;;;;;;;2.60;1.30;;;21.90;68.00;;;;;;5018829;28;20467;-72
2023/07/30 04:02:04;;;;;;;2.87;1.23;;;21.90;67.70;;;;;;4947505;28;20463;-72
2023/07/30 04:04:32;;;;;;;1.43;1.30;;;21.90;68.00;;;;;;4946637;28;20839;-72
2023/07/30 04:07:01;;;;;;;2.50;1.70;;;21.90;68.00;;;;;;4947941;28;20458;-72
2023/07/30 04:09:29;;;;;;;1.87;1.20;;;21.90;67.80;;;;;;4947292;28;20482;-72
2023/07/30 04:12:00;;;;;;;2.60;1.63;;;21.90;68.00;;;;;;4963569;28;21163;-72
2023/07/30 04:14:30;;;;;;;1.90;1.47;;;21.90;68.00;;;;;;4948821;28;20474;-72
2023/07/30 04:16:58;;;;;;;2.00;1.30;;;21.90;67.90;;;;;;4954656;28;20462;-72
2023/07/30 04:19:27;;;;;;;2.10;1.70;;;21.90;67.90;;;;;;4976973;28;20466;-72
2023/07/30 04:21:55;;;;;;;1.93;1.20;;;21.90;67.40;;;;;;4961623;28;20428;-72
2023/07/30 04:24:23;;;;;;;4.30;1.60;;;21.80;67.60;;;;;;4947642;28;20485;-72
2023/07/30 04:26:52;;;;;;;1.67;1.00;;;21.80;67.70;;;;;;4969259;28;20551;-73
2023/07/30 04:29:21;;;;;;;4.00;1.83;;;21.80;67.60;;;;;;4991368;28;20468;-72
2023/07/30 04:31:51;;;;;;;4.47;1.87;;;21.90;68.00;;;;;;5022810;28;20495;-72
2023/07/30 04:34:19;;;;;;;1.80;1.40;;;21.90;67.80;;;;;;5015741;28;20479;-72
2023/07/30 04:36:48;;;;;;;3.83;1.10;;;21.90;67.80;;;;;;5023464;28;20546;-72
2023/07/30 04:39:18;;;;;;;2.03;1.50;;;21.80;67.60;;;;;;4978137;28;22129;-72
2023/07/30 04:41:47;;;;;;;1.90;1.27;;;21.80;67.50;;;;;;4959425;28;20489;-72
2023/07/30 04:44:15;;;;;;;2.00;1.40;;;21.80;67.50;;;;;;4949312;28;20470;-72
2023/07/30 04:46:44;;;;;;;1.60;1.40;;;21.80;67.20;;;;;;4969794;28;20477;-72
2023/07/30 04:49:14;;;;;;;2.90;1.00;;;21.80;67.30;;;;;;4973301;28;20560;-72
2023/07/30 04:51:44;;;;;;;1.83;1.50;;;21.80;67.10;;;;;;4948758;28;20456;-72
2023/07/30 04:54:13;;;;;;;2.63;1.20;;;21.80;67.40;;;;;;4953893;28;20568;-72
2023/07/30 04:56:43;;;;;;;2.60;1.57;;;21.80;67.20;;;;;;4936022;28;20487;-72
2023/07/30 04:59:11;;;;;;;2.23;1.43;;;21.80;67.40;;;;;;4949414;28;20498;-72
2023/07/30 05:01:40;;;;;;;2.27;1.37;;;21.80;67.40;;;;;;4963450;28;20440;-72
2023/07/30 05:04:08;;;;;;;1.90;1.30;;;21.80;67.10;;;;;;4950035;28;21006;-72
2023/07/30 05:06:38;;;;;;;2.50;1.40;;;21.80;67.40;;;;;;4974007;28;20455;-72
2023/07/30 05:09:07;;;;;;;1.50;1.13;;;21.80;67.40;;;;;;4948087;28;20464;-72
2023/07/30 05:11:35;;;;;;;2.43;1.40;;;21.80;67.50;;;;;;4944742;28;20559;-72
2023/07/30 05:14:04;;;;;;;2.27;1.33;;;21.80;67.20;;;;;;4959094;28;20513;-72
2023/07/30 05:16:32;;;;;;;2.00;1.47;;;21.80;66.90;;;;;;4961498;28;20436;-72
2023/07/30 05:19:01;;;;;;;2.03;1.40;;;21.70;67.20;;;;;;4944296;28;20821;-72
2023/07/30 05:21:29;;;;;;;1.73;1.40;;;21.80;67.30;;;;;;4945596;29;20443;-72
2023/07/30 05:23:59;;;;;;;2.77;1.60;;;21.80;67.20;;;;;;4947042;28;20467;-72
2023/07/30 05:26:28;;;;;;;4.57;1.93;;;21.80;67.00;;;;;;5012425;28;20471;-72
2023/07/30 05:28:56;;;;;;;2.70;1.50;;;21.80;67.00;;;;;;4946723;28;20966;-72
2023/07/30 05:31:25;;;;;;;1.77;1.20;;;21.80;66.80;;;;;;4945632;28;20560;-72
2023/07/30 05:33:53;;;;;;;1.87;1.30;;;21.70;66.90;;;;;;4938920;28;20471;-72
2023/07/30 05:36:22;;;;;;;3.73;1.67;;;21.70;66.80;;;;;;4945889;28;20464;-72
2023/07/30 05:38:50;;;;;;;2.53;1.67;;;21.70;66.90;;;;;;4962101;28;20595;-72
2023/07/30 05:41:21;;;;;;;2.50;1.97;;;21.70;66.70;;;;;;4942123;28;20471;-72
2023/07/30 05:43:49;;;;;;;2.50;1.27;;;21.70;67.00;;;;;;4929830;28;20538;-72
2023/07/30 05:46:18;;;;;;;2.87;1.60;;;21.70;66.90;;;;;;4931004;28;20955;-72
2023/07/30 05:48:46;;;;;;;3.37;1.67;;;21.70;66.80;;;;;;4961454;28;20458;-72
2023/07/30 05:51:15;;;;;;;1.90;1.50;;;21.70;66.70;;;;;;4973489;28;20792;-72
2023/07/30 05:53:43;;;;;;;2.50;1.47;;;21.70;66.50;;;;;;4953245;28;20463;-72
2023/07/30 05:56:14;;;;;;;2.13;1.40;;;21.70;66.80;;;;;;4944685;28;20534;-72
2023/07/30 05:58:43;;;;;;;2.03;1.00;;;21.70;66.10;;;;;;4975611;28;20499;-72
2023/07/30 06:01:12;;;;;;;1.93;1.10;;;21.70;66.70;;;;;;4946815;28;20932;-72
2023/07/30 06:03:41;;;;;;;2.17;1.20;;;21.70;66.80;;;;;;5016375;28;20817;-72
2023/07/30 06:06:09;;;;;;;2.87;1.13;;;21.70;66.40;;;;;;4959545;28;20826;-72
2023/07/30 06:08:38;;;;;;;1.73;1.10;;;21.70;66.10;;;;;;4964823;28;20479;-72
2023/07/30 06:11:07;;;;;;;1.30;1.10;;;21.70;66.30;;;;;;4941693;28;20458;-72
2023/07/30 06:13:36;;;;;;;2.70;1.50;;;21.70;66.80;;;;;;4962652;28;20482;-72
2023/07/30 06:16:06;;;;;;;3.17;1.17;;;21.70;66.60;;;;;;4963038;28;20513;-72
2023/07/30 06:18:35;;;;;;;1.90;1.70;;;21.70;66.40;;;;;;4938355;28;20546;-72
2023/07/30 06:21:03;;;;;;;2.13;1.50;;;21.60;66.40;;;;;;4948693;28;20542;-72
2023/07/30 06:23:32;;;;;;;2.00;1.47;;;21.70;66.30;;;;;;4968840;28;20486;-72
2023/07/30 06:26:00;;;;;;;1.80;1.30;;;21.60;65.70;;;;;;4944286;28;20448;-72
2023/07/30 06:28:31;;;;;;;1.67;1.40;;;21.60;66.10;;;;;;5013458;28;20455;-72
2023/07/30 06:31:01;;;;;;;3.43;1.53;;;21.60;66.30;;;;;;5025258;28;20457;-72
2023/07/30 06:33:32;;;;;;;2.80;1.60;;;21.60;66.20;;;;;;4962524;28;20488;-72
2023/07/30 06:36:01;;;;;;;3.70;1.10;;;21.60;65.70;;;;;;4953064;28;20517;-72
2023/07/30 06:38:29;;;;;;;2.40;1.30;;;21.60;66.00;;;;;;4972866;28;20443;-72
2023/07/30 06:40:58;;;;;;;1.30;1.00;;;21.60;65.70;;;;;;4961504;28;21036;-72
2023/07/30 06:43:30;;;;;;;1.73;1.07;;;21.60;66.00;;;;;;4975922;28;20443;-72
2023/07/30 06:45:59;;;;;;;1.93;1.03;;;21.60;65.80;;;;;;5036550;28;20438;-72
2023/07/30 06:48:28;;;;;;;1.57;1.07;;;21.60;65.40;;;;;;4948295;28;20462;-72
2023/07/30 06:50:58;;;;;;;4.17;1.40;;;21.60;65.40;;;;;;4942517;28;20493;-72
2023/07/30 06:53:27;;;;;;;2.00;1.33;;;21.60;65.40;;;;;;5030549;28;20464;-72
2023/07/30 06:58:45;;;;;;;2.43;1.40;;;21.60;65.70;;;;;;4880067;29;20861;-67
2023/07/30 07:01:14;;;;;;;1.93;1.30;;;21.60;66.00;;;;;;4899777;29;20486;-67
2023/07/30 07:03:42;;;;;;;2.30;1.20;;;21.60;65.40;;;;;;4890777;29;20555;-67
2023/07/30 07:06:12;;;;;;;3.30;1.40;;;21.60;65.60;;;;;;4902362;29;20457;-67
2023/07/30 07:08:41;;;;;;;2.50;1.30;;;21.60;65.60;;;;;;4894227;29;20491;-67
2023/07/30 07:11:09;;;;;;;3.00;1.40;;;21.60;66.00;;;;;;4907906;29;20573;-67
2023/07/30 07:13:38;;;;;;;3.17;1.47;;;21.60;65.50;;;;;;4891846;29;20464;-66
2023/07/30 07:16:08;;;;;;;3.57;2.10;;;21.60;66.20;;;;;;4899430;29;20442;-67
2023/07/30 07:18:38;;;;;;;5.20;1.70;;;21.60;65.40;;;;;;4896517;29;20452;-67
2023/07/30 07:21:06;;;;;;;3.33;1.83;;;21.50;65.40;;;;;;4909099;29;20444;-67
2023/07/30 07:23:37;;;;;;;2.30;1.33;;;21.50;65.30;;;;;;4908128;29;20866;-67
2023/07/30 07:26:06;;;;;;;2.90;1.23;;;21.50;65.50;;;;;;4898993;29;20480;-67
2023/07/30 07:28:36;;;;;;;2.17;1.93;;;21.50;65.60;;;;;;4899412;29;20437;-67
2023/07/30 07:31:04;;;;;;;2.27;1.77;;;21.50;65.30;;;;;;4905673;29;20446;-67
2023/07/30 07:33:34;;;;;;;3.30;1.80;;;21.50;65.30;;;;;;4900873;29;20840;-67
2023/07/30 07:36:07;;;;;;;1.80;1.17;;;21.50;65.30;;;;;;4923260;29;20449;-67
2023/07/30 07:38:38;;;;;;;2.93;1.60;;;21.50;65.40;;;;;;4900833;29;20481;-66
2023/07/30 07:41:07;;;;;;;2.70;1.30;;;21.50;65.30;;;;;;4906702;29;20437;-66
2023/07/30 07:43:36;;;;;;;2.63;1.47;;;21.50;65.50;;;;;;4904887;29;20528;-66
2023/07/30 07:46:09;;;;;;;2.87;1.47;;;21.50;65.30;;;;;;4905353;29;20458;-67
2023/07/30 07:48:38;;;;;;;2.50;1.40;;;21.50;66.00;;;;;;4900341;29;20810;-66
2023/07/30 07:51:07;;;;;;;2.80;1.20;;;21.50;65.70;;;;;;4899057;29;20455;-67
2023/07/30 07:53:37;;;;;;;5.50;1.80;;;21.50;65.30;;;;;;4890284;29;20981;-67
2023/07/30 07:56:06;;;;;;;1.83;1.10;;;21.50;65.30;;;;;;4875187;29;20802;-66
2023/07/30 07:58:35;;;;;;;2.10;1.13;;;21.50;65.30;;;;;;4869862;29;20569;-67
2023/07/30 08:01:04;;;;;;;3.60;1.53;;;21.50;65.80;;;;;;4890662;29;20446;-67
2023/07/30 08:03:33;;;;;;;3.03;1.73;;;21.50;65.70;;;;;;4906878;29;20526;-66
2023/07/30 08:06:02;;;;;;;3.77;1.43;;;21.50;65.90;;;;;;4870497;29;20460;-67
2023/07/30 08:08:31;;;;;;;3.17;1.30;;;21.50;65.90;;;;;;4888222;29;20474;-66
2023/07/30 08:11:06;;;;;;;2.80;1.53;;;21.50;65.70;;;;;;4891632;29;20456;-67
2023/07/30 08:13:39;;;;;;;2.70;1.33;;;21.50;65.80;;;;;;4903284;29;20835;-66
2023/07/30 08:16:09;;;;;;;2.80;1.40;;;21.50;65.80;;;;;;4902746;29;20430;-67
2023/07/30 08:18:37;;;;;;;2.10;1.30;;;21.40;65.40;;;;;;4909881;29;20513;-67
2023/07/30 08:21:06;;;;;;;2.63;1.40;;;21.40;65.50;;;;;;4899869;29;20535;-67
2023/07/30 08:23:35;;;;;;;3.47;1.70;;;21.50;65.30;;;;;;4900983;29;20821;-67
2023/07/30 08:26:04;;;;;;;3.10;1.93;;;21.50;65.40;;;;;;4895338;29;20920;-67
2023/07/30 08:28:33;;;;;;;3.10;1.60;;;21.40;65.20;;;;;;4895403;29;20453;-67
2023/07/30 08:31:02;;;;;;;3.50;1.50;;;21.40;65.30;;;;;;4904004;29;20979;-66
2023/07/30 08:33:30;;;;;;;5.53;1.90;;;21.40;65.50;;;;;;4900427;29;20469;-67
2023/07/30 08:36:00;;;;;;;2.53;1.40;;;21.40;65.20;;;;;;4901546;29;20863;-66
2023/07/30 08:38:30;;;;;;;6.07;1.80;;;21.40;65.20;;;;;;4897506;29;20472;-66
2023/07/30 08:40:58;;;;;;;1.83;1.27;;;21.40;65.20;;;;;;4895032;29;20453;-67
2023/07/30 08:43:29;;;;;;;5.40;2.10;;;21.40;65.20;;;;;;4897537;29;20543;-67
2023/07/30 08:45:57;;;;;;;6.63;1.80;;;21.40;65.20;;;;;;4919213;29;20869;-67
2023/07/30 08:48:26;;;;;;;5.27;2.00;;;21.40;65.20;;;;;;4908775;29;20550;-67
2023/07/30 08:50:58;;;;;;;4.87;1.80;;;21.40;65.30;;;;;;4893911;29;20973;-67
2023/07/30 08:53:27;;;;;;;4.97;1.70;;;21.40;65.60;;;;;;4895682;29;20484;-67
2023/07/30 08:55:56;;;;;;;2.10;1.43;;;21.50;65.70;;;;;;4912156;29;20446;-67
2023/07/30 08:58:26;;;;;;;1.90;1.43;;;21.50;65.70;;;;;;4896672;29;20468;-66
2023/07/30 09:00:58;;;;;;;2.97;2.00;;;21.50;65.40;;;;;;4898779;29;20464;-67
2023/07/30 09:03:28;;;;;;;2.60;1.10;;;21.50;65.30;;;;;;4896336;29;20441;-66
2023/07/30 09:05:56;;;;;;;3.40;1.50;;;21.50;65.30;;;;;;4917503;29;20445;-67
2023/07/30 09:08:25;;;;;;;3.40;1.50;;;21.50;65.30;;;;;;4900504;29;20463;-66
2023/07/30 09:10:53;;;;;;;3.70;1.60;;;21.50;65.40;;;;;;4927759;29;20822;-67
2023/07/30 09:13:23;;;;;;;4.37;1.50;;;21.50;65.30;;;;;;4905635;29;20447;-67
2023/07/30 09:15:51;;;;;;;3.13;1.60;;;21.50;65.30;;;;;;4940606;29;20461;-67
2023/07/30 09:18:21;;;;;;;4.33;1.90;;;21.40;65.20;;;;;;4939583;29;20483;-67
2023/07/30 09:20:50;;;;;;;2.37;1.20;;;21.40;65.20;;;;;;4945333;29;20542;-67
2023/07/30 09:23:19;;;;;;;4.77;1.87;;;21.50;65.30;;;;;;4930246;29;20463;-67
2023/07/30 09:25:50;;;;;;;4.30;1.83;;;21.40;65.20;;;;;;4914374;29;20472;-67
2023/07/30 09:28:20;;;;;;;3.33;1.57;;;21.40;65.20;;;;;;4936713;29;20468;-67
2023/07/30 09:30:50;;;;;;;2.17;1.60;;;21.40;65.20;;;;;;4924930;29;20459;-67
2023/07/30 09:33:21;;;;;;;4.30;1.50;;;21.40;65.20;;;;;;4923075;29;20445;-67
2023/07/30 09:35:50;;;;;;;2.60;1.33;;;21.40;65.60;;;;;;4923702;29;20468;-67
2023/07/30 09:38:20;;;;;;;1.77;1.30;;;21.40;65.40;;;;;;4938433;29;20987;-67
2023/07/30 09:40:49;;;;;;;2.90;1.63;;;21.40;65.50;;;;;;4919785;29;20510;-67
2023/07/30 09:43:17;;;;;;;3.30;1.40;;;21.40;65.50;;;;;;4920367;29;20461;-67
2023/07/30 09:45:47;;;;;;;4.40;1.63;;;21.40;65.40;;;;;;4923132;29;20495;-67
2023/07/30 09:48:16;;;;;;;2.00;1.20;;;21.50;65.30;;;;;;4920903;29;20556;-67
2023/07/30 09:50:46;;;;;;;3.07;1.73;;;21.40;65.20;;;;;;4924700;29;20448;-67
2023/07/30 09:53:17;;;;;;;3.50;1.37;;;21.40;66.50;;;;;;4925607;29;20973;-67
2023/07/30 09:55:46;;;;;;;2.73;1.67;;;21.50;65.30;;;;;;4912114;29;20491;-67
2023/07/30 09:58:14;;;;;;;4.30;1.63;;;21.40;65.20;;;;;;4914003;29;20864;-67
2023/07/30 10:00:44;;;;;;;1.90;1.33;;;21.40;65.20;;;;;;4933188;29;20453;-67
2023/07/30 10:03:14;;;;;;;4.03;1.83;;;21.40;65.30;;;;;;4925167;29;20652;-67
2023/07/30 10:05:47;;;;;;;2.10;1.27;;;21.40;65.20;;;;;;4896275;29;20872;-67
2023/07/30 10:08:22;;;;;;;3.73;1.43;;;21.40;65.20;;;;;;4912742;29;20441;-67
2023/07/30 10:10:52;;;;;;;4.03;1.90;;;21.40;65.20;;;;;;4903276;29;20451;-67
2023/07/30 10:13:22;;;;;;;2.57;1.37;;;21.40;65.20;;;;;;4930221;29;20608;-67
2023/07/30 10:15:51;;;;;;;3.00;1.43;;;21.40;65.30;;;;;;4934917;29;20476;-67
2023/07/30 10:18:21;;;;;;;2.00;1.23;;;21.40;65.20;;;;;;4919417;29;20506;-67
2023/07/30 10:20:57;;;;;;;3.20;1.73;;;21.40;65.20;;;;;;4912754;29;20679;-66
2023/07/30 10:23:28;;;;;;;2.77;1.37;;;21.40;65.30;;;;;;4909749;29;20449;-67
2023/07/30 10:25:57;;;;;;;2.57;1.57;;;21.40;65.20;;;;;;4910682;29;20448;-68
2023/07/30 10:28:32;;;;;;;3.20;1.80;;;21.40;65.20;;;;;;4924894;29;20560;-67
2023/07/30 10:31:03;;;;;;;4.13;2.00;;;21.40;65.20;;;;;;4934826;29;20451;-68
2023/07/30 10:33:50;;;;;;;2.63;2.00;;;21.40;65.20;;;;;;4934236;29;20448;-67
2023/07/30 10:36:32;;;;;;;3.83;1.47;;;21.40;65.20;;;;;;4922847;29;20455;-67
2023/07/30 10:39:11;;;;;;;3.07;1.43;;;21.40;65.20;;;;;;4918674;29;20732;-67
2023/07/30 10:41:40;;;;;;;2.67;1.30;;;21.40;65.20;;;;;;4936190;29;20830;-67
2023/07/30 10:44:28;;;;;;;3.73;1.33;;;21.40;64.20;;;;;;4940936;28;20556;-67
2023/07/30 10:46:58;;;;;;;2.90;1.40;;;21.40;65.00;;;;;;4921662;29;20451;-67
2023/07/30 10:49:27;;;;;;;3.57;1.57;;;21.40;64.20;;;;;;4926330;29;20755;-67
2023/07/30 10:51:58;;;;;;;2.30;1.20;;;21.40;64.10;;;;;;4911925;29;20526;-66
2023/07/30 10:54:26;;;;;;;2.57;1.30;;;21.40;64.50;;;;;;4925849;29;20471;-67
2023/07/30 10:56:55;;;;;;;2.60;1.10;;;21.40;64.40;;;;;;4912006;29;20515;-68
2023/07/30 10:59:24;;;;;;;1.70;1.30;;;21.40;63.80;;;;;;4930407;29;20503;-68
2023/07/30 11:01:54;;;;;;;2.10;1.10;;;21.40;64.80;;;;;;4923714;29;21030;-67
2023/07/30 11:04:24;;;;;;;2.13;1.60;;;21.40;63.30;;;;;;4924496;29;20503;-66
2023/07/30 11:06:52;;;;;;;5.87;1.43;;;21.40;63.70;;;;;;4947385;29;20476;-67
2023/07/30 11:09:26;;;;;;;5.43;1.20;;;21.40;63.80;;;;;;4920350;29;20484;-67
2023/07/30 11:11:55;;;;;;;3.27;1.27;;;21.40;64.10;;;;;;4929729;29;20811;-67
2023/07/30 11:14:27;;;;;;;2.63;1.60;;;21.40;63.80;;;;;;4919055;29;20479;-68
2023/07/30 11:16:58;;;;;;;3.73;1.50;;;21.40;63.50;;;;;;4916391;29;20565;-66
2023/07/30 11:19:27;;;;;;;6.20;1.63;;;21.50;61.50;;;;;;4912803;29;20485;-66
2023/07/30 11:21:57;;;;;;;4.20;1.67;;;21.50;59.50;;;;;;4930443;29;20448;-67
2023/07/30 11:24:36;;;;;;;2.80;1.30;;;21.50;58.20;;;;;;4920153;29;20485;-67
2023/07/30 11:27:05;;;;;;;7.67;2.40;;;21.40;57.30;;;;;;4924682;29;20434;-67
2023/07/30 11:29:34;;;;;;;3.87;1.77;;;21.40;57.70;;;;;;4923892;29;20950;-66
2023/07/30 11:32:03;;;;;;;2.83;1.80;;;21.30;57.00;;;;;;4915130;29;20495;-66
2023/07/30 11:34:35;;;;;;;3.40;1.70;;;21.30;58.20;;;;;;4920605;29;20489;-66
2023/07/30 11:37:06;;;;;;;3.53;1.90;;;21.30;58.20;;;;;;4917311;29;21329;-67
2023/07/30 11:39:36;;;;;;;2.23;1.30;;;21.30;58.50;;;;;;4907929;29;21104;-66
2023/07/30 11:42:05;;;;;;;4.60;1.87;;;21.30;59.10;;;;;;4903428;29;20482;-67
2023/07/30 11:44:35;;;;;;;4.87;1.60;;;21.40;59.10;;;;;;4907616;29;20511;-66
2023/07/30 11:47:05;;;;;;;6.20;1.80;;;21.40;59.40;;;;;;4923095;29;20872;-67
2023/07/30 11:49:33;;;;;;;4.10;1.93;;;21.40;59.70;;;;;;4905848;29;20476;-72
2023/07/30 11:52:12;;;;;;;3.43;1.50;;;21.40;59.80;;;;;;4917707;29;20465;-72
2023/07/30 11:54:43;;;;;;;3.10;1.87;;;21.40;59.90;;;;;;4923072;29;20901;-72
2023/07/30 11:57:11;;;;;;;3.40;1.57;;;21.40;60.00;;;;;;4943253;29;20570;-72
2023/07/30 11:59:42;;;;;;;3.50;1.93;;;21.40;60.00;;;;;;4922794;29;20460;-72
2023/07/30 12:02:17;;;;;;;3.57;1.20;;;21.40;59.90;;;;;;4932822;29;20471;-67
2023/07/30 12:04:46;;;;;;;3.37;1.73;;;21.40;60.20;;;;;;4917702;29;20532;-67
2023/07/30 12:07:26;;;;;;;2.90;1.60;;;21.40;60.50;;;;;;4924324;29;20441;-67
2023/07/30 12:10:06;;;;;;;2.50;1.33;;;21.40;60.20;;;;;;4914646;29;20881;-68
2023/07/30 12:12:35;;;;;;;2.97;1.73;;;21.40;60.70;;;;;;4916291;29;20470;-67
2023/07/30 12:15:12;;;;;;;3.67;1.90;;;21.40;60.90;;;;;;4921514;29;20483;-67
2023/07/30 12:17:40;;;;;;;3.73;1.50;;;21.40;60.90;;;;;;4928259;29;20460;-67
2023/07/30 12:20:10;;;;;;;3.60;1.43;;;21.40;61.00;;;;;;4931888;28;21023;-67
2023/07/30 12:22:38;;;;;;;2.03;1.30;;;21.40;61.10;;;;;;4930914;29;20458;-67
2023/07/30 12:25:10;;;;;;;2.83;1.17;;;21.40;61.20;;;;;;4910001;29;20545;-67
2023/07/30 12:27:38;;;;;;;2.40;1.20;;;21.40;61.30;;;;;;4912886;29;20451;-67
2023/07/30 12:30:08;;;;;;;2.07;1.50;;;21.40;61.30;;;;;;4920470;29;20891;-67
2023/07/30 12:32:37;;;;;;;3.47;1.63;;;21.40;61.10;;;;;;4909570;29;20502;-67
2023/07/30 12:35:06;;;;;;;2.40;1.30;;;21.40;61.40;;;;;;4917046;29;21001;-67
2023/07/30 12:37:35;;;;;;;2.27;1.37;;;21.40;61.30;;;;;;4930583;29;21074;-67
2023/07/30 12:40:05;;;;;;;3.30;1.60;;;21.40;61.20;;;;;;4899524;29;20854;-68
2023/07/30 12:42:34;;;;;;;2.73;1.53;;;21.40;61.20;;;;;;4937165;29;20451;-67
2023/07/30 12:45:03;;;;;;;2.57;1.53;;;21.40;61.20;;;;;;4940312;28;20460;-67
2023/07/30 12:47:31;;;;;;;3.23;1.63;;;21.50;61.30;;;;;;4927516;29;20452;-67
2023/07/30 12:50:00;;;;;;;6.30;1.80;;;21.50;61.50;;;;;;4921273;29;20486;-67
2023/07/30 12:52:28;;;;;;;2.63;1.37;;;21.50;61.50;;;;;;4913941;29;20453;-67
2023/07/30 12:54:57;;;;;;;3.60;1.50;;;21.50;61.60;;;;;;4908872;29;20484;-67
2023/07/30 12:57:25;;;;;;;2.70;1.00;;;21.40;61.30;;;;;;4916934;29;20490;-67
2023/07/30 12:59:55;;;;;;;3.00;1.90;;;21.50;61.50;;;;;;4937118;29;20468;-67
2023/07/30 13:02:23;;;;;;;3.80;1.63;;;21.40;61.60;;;;;;4905262;29;20493;-67